This is the latest recevied weather packets stored in our database for station/object JF2ZGN-13. If no packets are shown the sender has not sent any weather packets the latest 10 day(s).
| Time | Temp. | Humidity | Pressure | Rain* | Wind** | Luminosity | Snow |
|---|---|---|---|---|---|---|---|
| 1777839909 | 16.67° C | 62% | 892.9 hPa | 15.75 mm | - | - | - |
| 1777839309 | 16.67° C | 67% | 893.4 hPa | 15.49 mm | - | - | - |
| 1777832704 | 16.11° C | 65% | 894.6 hPa | 8.64 mm | - | - | - |
| 1777829101 | 15° C | 58% | 894.3 hPa | 5.84 mm | - | - | - |
| 1777827300 | 13.89° C | 59% | 896.1 hPa | 4.57 mm | - | - | - |
| 1777810486 | 12.22° C | 49% | 901 hPa | 1.27 mm | - | - | - |
| 1777809285 | 11.67° C | 40% | 901.1 hPa | 0.76 mm | - | - | - |
| 1777806282 | 11.11° C | 39% | 900.9 hPa | 0 mm | - | - | - |
| 1777800877 | 11.67° C | 71% | 901.5 hPa | 0 mm | - | - | - |
| 1777800279 | 11.67° C | 76% | 901.6 hPa | 0 mm | - | - | - |
| 1777799676 | 11.67° C | 80% | 901.6 hPa | 0 mm | - | - | - |
| 1777799076 | 11.67° C | 79% | 901.7 hPa | 0 mm | - | - | - |
| 1777797275 | 11.67° C | 83% | 901.5 hPa | 0 mm | - | - | - |
| 1777796674 | 11.67° C | 81% | 901.7 hPa | 0 mm | - | - | - |
| 1777796075 | 11.67° C | 79% | 902 hPa | 0 mm | - | - | - |
| 1777795474 | 11.67° C | 78% | 902.2 hPa | 0 mm | - | - | - |
| 1777794873 | 11.67° C | 71% | 902.2 hPa | 0 mm | - | - | - |
| 1777793672 | 12.22° C | 72% | 902.3 hPa | 0 mm | - | - | - |
| 1777793071 | 12.78° C | 67% | 902.5 hPa | 0 mm | - | - | - |
| 1777792471 | 12.22° C | 69% | 902.9 hPa | 0 mm | - | - | - |
| 1777791870 | 12.78° C | 71% | 902.9 hPa | 0 mm | - | - | - |
| 1777791270 | 13.33° C | 58% | 903.1 hPa | 0 mm | - | - | - |
| 1777790670 | 13.89° C | 59% | 903.2 hPa | 0 mm | - | - | - |
| 1777790068 | 13.89° C | 57% | 903.3 hPa | 0 mm | - | - | - |
| 1777789468 | 15° C | 42% | 903.5 hPa | 0 mm | - | - | - |
* Rain since midnight (hover to see other rain measurements)
** Current wind speed in m/s (hover to see current wind gust speed)